Time;durP1;ratioP1;P1;durP2;ratioP2;P2;SDS_P1;SDS_P2;PMS_P1;PMS_P2;Temp;Humidity;BMP_temperature;BMP_pressure;BME280_temperature;BME280_humidity;BME280_pressure;Samples;Min_cycle;Max_cycle;Signal;HPM_P1;HPM_P2
2021/07/26 00:01:58;;;;;;;13.80;12.70;;;18.90;99.90;;;17.96;86.39;97443.97;5034710;28;20542;-77
2021/07/26 00:05:05;;;;;;;15.37;13.97;;;18.90;99.60;;;18.03;86.89;97471.06;5034807;28;20428;-78
2021/07/26 00:07:32;;;;;;;15.43;14.03;;;18.80;99.90;;;17.92;86.73;97453.84;5034683;28;20511;-78
2021/07/26 00:09:59;;;;;;;15.00;13.80;;;18.70;99.90;;;17.89;87.21;97450.84;5034396;28;20440;-77
2021/07/26 00:12:26;;;;;;;13.87;12.77;;;18.70;99.90;;;18.03;86.77;97457.38;5034554;28;20420;-78
2021/07/26 00:15:29;;;;;;;15.17;13.77;;;18.70;99.90;;;17.78;86.81;97426.25;5034720;28;20449;-78
2021/07/26 00:17:57;;;;;;;14.93;13.67;;;18.70;99.90;;;17.86;87.35;97448.66;5034707;28;20573;-78
2021/07/26 00:20:43;;;;;;;14.53;13.17;;;18.60;99.90;;;17.78;87.42;97448.13;5034731;28;20469;-81
2021/07/26 00:23:40;;;;;;;16.33;14.73;;;18.60;99.90;;;17.67;87.69;97441.06;5034970;28;20423;-78
2021/07/26 00:26:07;;;;;;;15.10;13.70;;;18.50;99.90;;;17.62;87.90;97441.88;5034963;28;20444;-78
2021/07/26 00:28:35;;;;;;;16.00;14.60;;;18.40;99.90;;;17.56;88.23;97441.06;5035004;28;20507;-78
2021/07/26 00:31:01;;;;;;;15.60;14.20;;;18.30;99.90;;;17.39;87.94;97429.63;5036635;28;20446;-78
2021/07/26 00:34:26;;;;;;;14.90;13.70;;;18.20;99.90;;;17.46;88.38;97445.72;5037959;28;20448;-78
2021/07/26 00:37:04;;;;;;;17.13;15.47;;;18.20;99.90;;;17.47;88.64;97445.44;5038111;28;20440;-77
2021/07/26 00:44:18;;;;;;;14.93;13.43;;;18.20;99.90;;;17.64;87.79;97449.78;5037923;28;20434;-78
2021/07/26 00:47:04;;;;;;;14.70;13.30;;;18.30;99.90;;;17.66;87.52;97456.63;5017740;28;20524;-77
2021/07/26 00:49:52;;;;;;;14.83;13.60;;;18.30;99.90;;;17.63;87.47;97450.88;5018050;28;20487;-78
2021/07/26 00:52:57;;;;;;;14.30;13.17;;;18.30;99.90;;;17.60;87.31;97445.97;5018310;28;20431;-77
2021/07/26 01:52:21;;;;;;;16.00;14.50;;;18.00;99.90;;;17.37;87.71;97470.03;5054096;28;20477;-78
2021/07/26 01:55:09;;;;;;;14.63;13.23;;;18.10;99.90;;;17.30;86.39;97434.00;5055500;28;20442;-78
2021/07/26 06:09:42;;;;;;;7.50;6.70;;;25.70;59.70;;;23.65;57.69;97559.59;4995637;28;20477;-79
2021/07/26 06:13:08;;;;;;;7.10;6.40;;;25.60;59.70;;;23.40;58.09;97564.59;4997925;28;20441;-79
2021/07/26 06:19:49;;;;;;;6.67;6.07;;;24.90;60.10;;;23.67;57.10;97554.59;4978252;29;20503;-80
2021/07/26 06:22:19;;;;;;;8.30;6.90;;;25.00;60.00;;;23.44;57.44;97544.38;4980073;28;20477;-78
2021/07/26 06:24:47;;;;;;;7.77;7.10;;;24.80;60.00;;;23.55;56.69;97536.66;4988820;28;20522;-90
2021/07/26 06:27:15;;;;;;;6.93;6.30;;;24.60;60.00;;;23.25;58.40;97544.50;4990724;28;20521;-86
2021/07/26 06:29:42;;;;;;;8.30;7.50;;;24.40;60.90;;;23.33;57.97;97548.50;4988299;28;20468;-87
2021/07/26 06:32:09;;;;;;;8.70;7.67;;;24.40;60.80;;;23.40;57.89;97546.09;4984069;28;20480;-87
2021/07/26 06:34:36;;;;;;;8.67;7.80;;;24.50;60.90;;;23.39;57.51;97552.75;4993685;28;20449;-86
2021/07/26 06:37:04;;;;;;;8.63;7.30;;;24.50;60.60;;;23.24;57.74;97551.13;4988216;28;20457;-85
2021/07/26 06:39:31;;;;;;;10.23;7.30;;;24.40;60.20;;;23.31;57.55;97557.06;4986698;28;20445;-91
2021/07/26 06:50:30;;;;;;;9.27;7.00;;;24.30;60.80;;;23.32;57.83;97560.63;4989098;28;20471;-90
2021/07/26 06:52:57;;;;;;;10.70;7.33;;;24.20;60.90;;;23.40;57.41;97551.63;4990566;28;20524;-90
2021/07/26 06:55:24;;;;;;;6.60;5.90;;;24.30;61.10;;;23.65;56.37;97565.94;4987979;28;20532;-85
2021/07/26 06:57:52;;;;;;;6.50;5.70;;;24.50;60.30;;;23.23;57.46;97551.44;4969747;28;20443;-87
2021/07/26 07:00:20;;;;;;;8.03;6.27;;;24.40;60.10;;;23.59;57.02;97567.19;4970264;28;20454;-91
2021/07/26 07:02:50;;;;;;;8.70;7.10;;;24.50;60.40;;;23.82;56.20;97575.44;4973025;28;20520;-89
2021/07/26 07:05:17;;;;;;;10.30;7.00;;;24.60;60.20;;;23.94;56.26;97572.94;4973721;28;20454;-88
2021/07/26 07:07:44;;;;;;;6.90;6.20;;;24.80;60.30;;;24.01;55.94;97583.53;4973189;28;20477;-86
2021/07/26 07:10:12;;;;;;;7.43;6.80;;;25.00;60.20;;;23.98;55.64;97573.94;4972358;28;20486;-84
2021/07/26 07:12:39;;;;;;;7.70;7.00;;;25.00;59.60;;;23.03;58.24;97551.56;4970351;28;20465;-82
2021/07/26 07:15:09;;;;;;;7.43;6.67;;;24.60;60.20;;;23.60;57.30;97580.66;4966163;28;20193;-83
2021/07/26 07:17:37;;;;;;;6.87;6.33;;;24.50;60.50;;;23.63;56.48;97568.19;4968644;28;20514;-83
2021/07/26 07:20:06;;;;;;;7.00;6.50;;;24.60;60.20;;;23.39;57.09;97565.72;4967971;28;20477;-83
2021/07/26 07:22:33;;;;;;;7.07;6.30;;;24.60;60.00;;;23.61;56.90;97546.44;4960866;28;20529;-83
2021/07/26 07:25:04;;;;;;;6.50;5.90;;;24.80;60.30;;;24.23;55.40;97576.38;4962904;28;20458;-83
2021/07/26 07:27:31;;;;;;;8.25;7.45;;;24.90;60.00;;;23.98;55.95;97581.41;4944913;28;20462;-85
2021/07/26 07:29:59;;;;;;;7.33;6.63;;;24.80;59.90;;;24.08;55.65;97581.16;4961987;28;20214;-84
2021/07/26 07:32:28;;;;;;;7.53;6.90;;;24.80;59.90;;;23.74;56.61;97574.25;4963344;28;20446;-85
2021/07/26 07:34:55;;;;;;;8.63;7.83;;;24.80;59.90;;;23.71;57.21;97575.69;4964107;28;20734;-85
2021/07/26 07:37:23;;;;;;;8.33;7.17;;;24.80;60.50;;;23.87;57.15;97578.06;4965250;28;20609;-85
2021/07/26 07:39:50;;;;;;;8.00;7.20;;;24.70;60.60;;;23.71;57.07;97583.97;4964165;28;20521;-84
2021/07/26 07:42:17;;;;;;;8.73;7.37;;;24.70;60.40;;;23.49;57.72;97580.06;4966047;28;20477;-85
2021/07/26 07:44:44;;;;;;;9.57;7.20;;;24.60;60.40;;;23.58;57.86;97587.59;4966388;28;20470;-85
2021/07/26 07:47:14;;;;;;;8.30;7.40;;;24.50;60.80;;;23.62;57.91;97596.88;4968835;28;20466;-85
2021/07/26 07:49:43;;;;;;;7.93;7.33;;;24.50;60.90;;;23.70;57.29;97596.13;4936799;29;20492;-84
2021/07/26 07:52:11;;;;;;;8.93;8.23;;;24.50;60.60;;;23.72;57.12;97593.88;4957231;29;20515;-84
2021/07/26 07:54:40;;;;;;;8.30;7.60;;;24.40;60.80;;;23.73;57.37;97597.44;4971234;28;20447;-83
2021/07/26 07:57:07;;;;;;;8.70;8.00;;;24.40;61.00;;;23.86;56.80;97596.59;4957130;28;20481;-79
2021/07/26 07:59:34;;;;;;;8.70;7.87;;;24.70;60.80;;;23.60;57.63;97593.63;4971973;28;20474;-80
2021/07/26 08:02:08;;;;;;;8.60;7.87;;;24.60;60.50;;;23.78;56.76;97597.31;4976436;28;20489;-79
2021/07/26 08:04:36;;;;;;;12.60;9.20;;;24.60;60.40;;;23.85;56.63;97596.88;4971391;28;20452;-80
2021/07/26 08:07:05;;;;;;;13.30;8.20;;;24.80;60.30;;;24.50;55.54;97599.41;4972942;28;20458;-85
2021/07/26 08:09:32;;;;;;;7.90;7.30;;;25.10;60.20;;;24.55;54.84;97602.03;4958213;29;20447;-83
2021/07/26 08:11:59;;;;;;;9.20;7.87;;;25.40;59.70;;;24.60;55.09;97599.16;4967940;28;20474;-87
2021/07/26 08:14:26;;;;;;;8.33;7.50;;;25.40;59.70;;;25.03;54.93;97611.50;4969510;28;20439;-88
2021/07/26 08:16:54;;;;;;;9.20;8.30;;;25.70;60.30;;;25.03;54.22;97595.75;4974024;28;20482;-89
2021/07/26 08:19:21;;;;;;;13.00;8.10;;;25.80;59.60;;;24.67;55.10;97599.47;4975126;28;20476;-90
2021/07/26 08:21:48;;;;;;;7.63;6.80;;;25.50;59.70;;;24.27;56.11;97605.78;4979727;28;20474;-92
2021/07/26 08:24:17;;;;;;;7.03;6.50;;;24.80;60.50;;;24.48;56.28;97603.31;4975711;28;20453;-89
2021/07/26 08:26:43;;;;;;;7.80;7.10;;;24.80;61.30;;;24.78;56.08;97605.56;4976715;28;20538;-92
2021/07/26 08:29:10;;;;;;;9.00;8.10;;;25.20;61.20;;;25.01;54.77;97603.50;4977415;28;20444;-89
2021/07/26 08:31:37;;;;;;;8.17;7.57;;;25.60;60.30;;;24.72;55.52;97606.81;4969026;28;20486;-91
2021/07/26 08:34:06;;;;;;;10.07;7.13;;;25.40;60.20;;;24.88;55.90;97619.09;4979768;28;20466;-89
2021/07/26 08:36:33;;;;;;;7.67;6.53;;;25.50;60.70;;;25.21;55.03;97617.06;4969134;28;20494;-90
2021/07/26 08:39:01;;;;;;;7.50;6.80;;;25.80;60.40;;;25.32;54.42;97623.91;4954272;28;20537;-91
2021/07/26 08:41:31;;;;;;;9.50;8.50;;;26.00;59.90;;;25.23;54.11;97621.13;4972492;28;20454;-91
2021/07/26 08:43:58;;;;;;;7.70;6.90;;;26.10;59.50;;;25.03;54.87;97633.59;4978842;28;20477;-91
2021/07/26 08:46:26;;;;;;;7.20;6.50;;;25.80;59.70;;;24.95;55.56;97623.34;4974553;28;20541;-91
2021/07/26 08:48:53;;;;;;;8.53;7.63;;;25.70;60.20;;;24.65;56.04;97617.53;4970032;28;20477;-88
2021/07/26 08:51:21;;;;;;;7.90;7.10;;;25.40;60.10;;;24.56;56.28;97621.03;4967993;28;20500;-91
2021/07/26 08:53:51;;;;;;;7.07;6.47;;;25.20;60.50;;;24.43;56.85;97616.44;4969689;28;20456;-89
2021/07/26 08:56:19;;;;;;;7.97;7.27;;;25.10;60.70;;;23.75;58.32;97609.81;4967734;28;20498;-89
2021/07/26 08:58:48;;;;;;;9.90;8.23;;;24.40;61.10;;;23.27;60.67;97588.28;4968123;28;20447;-88
2021/07/26 09:01:16;;;;;;;8.33;7.53;;;24.10;62.30;;;23.26;62.38;97615.03;4966206;28;20543;-89
2021/07/26 09:03:44;;;;;;;9.00;8.20;;;23.80;63.60;;;23.15;63.02;97630.97;4969154;28;20454;-90
2021/07/26 09:06:11;;;;;;;8.43;7.47;;;23.60;64.10;;;23.16;62.07;97626.25;4967324;28;20449;-90
2021/07/26 09:08:40;;;;;;;8.80;8.00;;;23.70;64.40;;;23.08;62.28;97641.56;4970206;28;20473;-88
2021/07/26 09:11:09;;;;;;;13.70;8.10;;;23.70;64.00;;;23.21;61.88;97642.69;4972638;28;20543;-77
2021/07/26 09:13:40;;;;;;;9.73;7.00;;;23.80;63.90;;;23.35;62.60;97637.19;4977902;29;20452;-88
2021/07/26 09:16:20;;;;;;;10.20;7.70;;;23.90;64.70;;;23.46;62.69;97640.50;4973119;28;20489;-86
2021/07/26 09:19:00;;;;;;;7.97;7.27;;;24.00;64.80;;;23.52;62.34;97638.47;4977105;29;20434;-87
2021/07/26 09:21:51;;;;;;;9.70;7.37;;;24.10;64.80;;;23.46;63.60;97635.00;4976844;29;20485;-90
2021/07/26 09:24:25;;;;;;;8.27;7.53;;;24.10;65.10;;;23.24;63.23;97638.47;4973050;29;20430;-87
2021/07/26 09:26:55;;;;;;;8.30;7.40;;;23.80;65.00;;;23.24;63.62;97647.56;4974035;28;20441;-91
2021/07/26 09:29:27;;;;;;;8.10;7.40;;;23.90;65.50;;;23.02;65.51;97653.81;4977847;28;20474;-90
2021/07/26 09:32:03;;;;;;;8.63;7.40;;;23.70;66.70;;;23.36;64.24;97647.06;4976105;28;20473;-90
2021/07/26 09:34:32;;;;;;;7.27;6.77;;;23.90;66.50;;;23.39;63.70;97629.91;4977430;28;20469;-90
2021/07/26 09:37:00;;;;;;;7.23;6.53;;;24.10;66.20;;;23.62;63.61;97647.31;4976594;28;20462;-91
2021/07/26 09:39:28;;;;;;;8.23;7.50;;;24.20;66.30;;;23.40;64.90;97653.59;4980621;28;20465;-87
2021/07/26 09:41:58;;;;;;;8.30;7.50;;;24.30;66.40;;;23.71;63.59;97641.88;4973257;28;20458;-92
2021/07/26 09:44:27;;;;;;;9.23;7.70;;;24.40;66.20;;;23.65;63.07;97648.66;4973538;28;20470;-90
2021/07/26 09:47:16;;;;;;;8.10;7.30;;;24.50;65.70;;;23.63;64.85;97656.41;4972172;28;20473;-91
2021/07/26 09:49:45;;;;;;;7.70;6.93;;;24.40;66.40;;;23.63;64.25;97656.41;4976453;28;20458;-81
2021/07/26 09:52:16;;;;;;;7.50;6.90;;;24.20;66.40;;;23.67;64.18;97651.91;4973138;29;20430;-79
2021/07/26 09:54:45;;;;;;;7.43;6.90;;;24.40;66.50;;;23.80;63.17;97665.97;4979235;29;20454;-82
2021/07/26 09:57:32;;;;;;;7.40;6.70;;;24.40;65.80;;;23.63;63.71;97650.91;4972916;28;20465;-88
2021/07/26 10:00:02;;;;;;;7.87;7.17;;;24.40;65.90;;;23.71;64.31;97658.41;4967769;28;20474;-88
2021/07/26 10:02:33;;;;;;;8.30;7.60;;;24.50;66.40;;;23.67;63.49;97651.09;4973207;28;20474;-87
2021/07/26 10:05:06;;;;;;;7.37;6.67;;;24.60;66.00;;;23.70;62.73;97661.50;4961000;29;20475;-90
2021/07/26 10:07:33;;;;;;;8.37;7.50;;;24.50;65.30;;;23.24;63.73;97655.84;4971929;29;20462;-80
2021/07/26 10:10:02;;;;;;;7.53;7.00;;;24.30;65.10;;;23.23;63.54;97653.38;4973941;29;20478;-83
2021/07/26 10:12:31;;;;;;;7.90;7.30;;;24.10;65.40;;;23.04;63.85;97657.88;4974208;28;20510;-83
2021/07/26 10:14:59;;;;;;;7.67;7.07;;;23.90;65.10;;;23.20;63.65;97652.88;4973831;28;20458;-82
2021/07/26 10:17:26;;;;;;;9.43;8.17;;;23.80;65.40;;;23.18;63.96;97648.78;4968776;28;20510;-85
2021/07/26 10:19:53;;;;;;;8.43;7.53;;;23.80;65.70;;;23.19;63.95;97651.25;4972849;28;20489;-85
2021/07/26 10:22:26;;;;;;;8.40;7.60;;;23.90;65.80;;;23.14;64.25;97658.81;4973006;28;20457;-85
2021/07/26 10:25:00;;;;;;;8.83;8.13;;;23.80;66.20;;;23.10;63.54;97639.31;4976436;28;20449;-82
2021/07/26 10:27:31;;;;;;;8.30;7.70;;;23.80;65.80;;;23.29;63.78;97652.19;4973147;28;20454;-84
2021/07/26 10:30:01;;;;;;;9.40;8.60;;;23.80;65.90;;;23.26;64.50;97658.28;4973833;28;20470;-84
2021/07/26 10:32:39;;;;;;;9.03;8.10;;;23.80;66.30;;;23.17;64.57;97655.44;4972989;28;20430;-85
2021/07/26 10:35:51;;;;;;;9.37;8.50;;;23.70;66.60;;;23.08;65.65;97652.56;4969241;28;20502;-85
2021/07/26 10:38:55;;;;;;;9.40;8.60;;;23.50;67.70;;;22.90;66.56;97646.06;4962234;28;20434;-86
2021/07/26 10:42:05;;;;;;;9.50;8.40;;;23.40;67.70;;;22.96;66.17;97647.59;4971294;28;20525;-83
2021/07/26 10:44:46;;;;;;;10.67;9.67;;;23.50;67.80;;;22.82;65.99;97644.81;4960918;28;20461;-82
2021/07/26 10:47:17;;;;;;;12.23;8.67;;;23.40;67.30;;;22.74;66.79;97643.59;4972016;28;20477;-84
2021/07/26 10:50:15;;;;;;;8.83;8.07;;;23.30;67.90;;;22.82;66.45;97642.06;4973845;28;20474;-84
2021/07/26 10:52:48;;;;;;;9.40;8.60;;;23.40;67.80;;;22.93;65.96;97646.25;4971709;28;20439;-85
2021/07/26 10:56:02;;;;;;;9.30;8.50;;;23.50;67.80;;;22.91;65.15;97633.94;4973515;28;20458;-84
2021/07/26 10:59:05;;;;;;;9.60;8.80;;;23.60;66.90;;;23.01;64.79;97639.22;4944715;28;20472;-85
2021/07/26 11:02:00;;;;;;;8.50;7.80;;;23.70;66.70;;;23.21;63.76;97635.22;4970520;28;20472;-83
2021/07/26 11:04:40;;;;;;;10.37;9.40;;;23.90;66.80;;;23.11;64.19;97631.88;4966002;28;20521;-83
2021/07/26 11:07:28;;;;;;;11.47;10.43;;;23.80;66.30;;;23.16;64.30;97626.25;4969522;28;22823;-86
2021/07/26 11:09:58;;;;;;;10.67;9.83;;;23.80;66.50;;;22.91;64.96;97626.47;4972602;28;20470;-86
2021/07/26 11:12:56;;;;;;;11.23;10.17;;;23.60;66.60;;;23.30;64.46;97626.28;4969065;28;20470;-85
2021/07/26 11:15:24;;;;;;;10.13;9.10;;;23.80;66.90;;;23.56;63.91;97614.66;4970321;28;20437;-83
2021/07/26 11:18:29;;;;;;;11.43;10.60;;;24.10;67.00;;;23.37;63.51;97612.88;4972729;28;20470;-79
2021/07/26 11:21:06;;;;;;;11.00;10.10;;;24.00;66.20;;;23.76;63.23;97611.44;4971652;28;20433;-79
2021/07/26 11:23:52;;;;;;;10.37;8.43;;;24.30;66.50;;;23.99;62.63;97625.22;4969775;28;20461;-78
2021/07/26 11:26:29;;;;;;;10.20;9.27;;;24.60;66.30;;;24.09;60.96;97615.91;4970428;28;20458;-79
2021/07/26 11:28:59;;;;;;;11.97;10.60;;;24.70;65.10;;;24.66;60.12;97613.63;4970670;28;20462;-79
2021/07/26 11:31:38;;;;;;;11.47;10.27;;;24.70;65.50;;;24.83;59.58;97610.97;4971105;28;20446;-78
2021/07/26 11:34:11;;;;;;;12.80;9.67;;;24.70;65.60;;;24.22;61.37;97608.69;4971828;28;20481;-79
2021/07/26 11:37:08;;;;;;;10.87;9.83;;;24.60;65.70;;;24.62;60.70;97608.72;4970003;28;20488;-79
2021/07/26 11:39:51;;;;;;;10.57;9.47;;;25.00;65.70;;;24.78;59.69;97611.09;4965982;28;20462;-79
2021/07/26 11:42:22;;;;;;;10.23;9.00;;;25.30;64.60;;;25.16;59.00;97601.44;4970999;28;20460;-79
2021/07/26 11:44:50;;;;;;;10.57;9.73;;;25.60;64.40;;;25.30;57.90;97588.28;4968523;28;20442;-79
2021/07/26 11:47:30;;;;;;;11.47;10.27;;;26.00;64.10;;;25.69;57.32;97610.63;4970505;28;20481;-79
2021/07/26 11:49:57;;;;;;;10.27;9.43;;;26.30;63.50;;;25.85;56.82;97601.84;4971443;28;20848;-79
2021/07/26 11:52:25;;;;;;;10.40;9.60;;;26.40;62.70;;;25.95;56.57;97587.66;4966393;28;20482;-80
2021/07/26 11:54:52;;;;;;;10.63;9.60;;;26.60;62.80;;;26.13;56.02;97576.56;4971310;28;20466;-82
2021/07/26 11:57:21;;;;;;;10.70;9.80;;;26.70;62.50;;;25.98;56.08;97589.78;4973599;28;20557;-82
2021/07/26 11:59:50;;;;;;;9.17;8.47;;;26.60;62.30;;;25.95;56.96;97593.22;4965453;28;20462;-82
2021/07/26 12:02:28;;;;;;;10.37;9.47;;;26.50;62.70;;;25.98;55.98;97588.97;4969501;28;20435;-82
2021/07/26 12:04:57;;;;;;;10.03;9.23;;;26.80;61.90;;;26.40;54.68;97580.09;4954708;28;20450;-82
2021/07/26 12:07:42;;;;;;;10.23;8.60;;;27.20;61.60;;;26.51;54.42;97589.69;4972338;28;20496;-83
2021/07/26 12:10:11;;;;;;;10.13;9.20;;;27.30;61.20;;;26.25;54.58;97587.81;4970090;28;20450;-83
2021/07/26 12:12:43;;;;;;;10.07;9.27;;;26.90;60.70;;;26.94;52.96;97587.88;4966066;28;20447;-83
2021/07/26 12:15:27;;;;;;;8.23;7.63;;;27.00;60.80;;;26.55;54.17;97585.09;4967506;28;20503;-83
2021/07/26 12:18:05;;;;;;;8.07;7.27;;;26.90;60.90;;;26.54;54.19;97572.41;4969993;28;20461;-82
2021/07/26 12:20:33;;;;;;;7.00;6.50;;;27.10;60.90;;;26.50;52.42;97579.75;4970021;28;20805;-83
2021/07/26 12:23:12;;;;;;;7.57;6.87;;;26.90;59.80;;;26.41;53.21;97587.28;4953506;28;20498;-83
2021/07/26 12:25:50;;;;;;;7.27;6.67;;;27.00;59.80;;;26.80;51.96;97590.88;4969413;28;20466;-82
2021/07/26 12:28:22;;;;;;;8.13;7.53;;;27.30;59.40;;;26.82;52.23;97580.25;4974285;28;20509;-82
2021/07/26 12:30:52;;;;;;;7.37;6.80;;;27.50;59.30;;;26.92;51.78;97581.03;4976438;28;20555;-82
2021/07/26 12:33:37;;;;;;;7.80;7.10;;;27.70;58.80;;;27.53;50.58;97582.66;4956558;29;20465;-82
2021/07/26 12:36:11;;;;;;;6.70;6.20;;;28.00;59.10;;;27.20;50.94;97561.97;4976714;28;20453;-84
2021/07/26 12:38:39;;;;;;;6.20;5.70;;;28.00;58.40;;;27.60;49.48;97555.16;4970928;28;20481;-83
2021/07/26 12:41:10;;;;;;;6.90;6.40;;;28.30;58.00;;;27.55;49.46;97569.25;4970607;28;21008;-80
2021/07/26 12:43:39;;;;;;;8.87;5.87;;;28.50;57.70;;;27.66;50.01;97572.41;4970370;28;20461;-81
2021/07/26 12:46:08;;;;;;;6.20;5.70;;;28.50;57.70;;;27.85;49.34;97564.41;4972772;28;20470;-82
2021/07/26 12:48:37;;;;;;;6.70;6.10;;;28.90;57.60;;;27.70;49.39;97565.03;4952133;28;20462;-84
2021/07/26 12:51:07;;;;;;;8.07;7.37;;;28.60;57.30;;;27.46;49.74;97549.06;4975170;28;20450;-83
2021/07/26 12:53:34;;;;;;;6.87;6.30;;;28.20;57.20;;;27.40;49.42;97562.31;4952652;29;20737;-83
2021/07/26 12:56:02;;;;;;;5.63;5.13;;;28.20;57.10;;;26.82;50.73;97565.59;4973807;28;20566;-83
2021/07/26 12:58:30;;;;;;;6.13;5.63;;;27.80;57.20;;;26.97;50.21;97572.56;4973904;28;20865;-83
2021/07/26 13:00:59;;;;;;;6.27;5.77;;;27.80;57.40;;;26.82;50.31;97574.72;4956188;28;20484;-83
2021/07/26 13:03:26;;;;;;;6.07;5.43;;;27.60;57.30;;;26.63;49.65;97552.97;4955069;28;20462;-82
2021/07/26 13:05:57;;;;;;;6.00;5.50;;;27.40;57.10;;;26.44;50.11;97567.22;4958765;28;20851;-82
2021/07/26 13:08:25;;;;;;;5.83;5.43;;;27.00;57.10;;;26.26;51.59;97545.13;4952727;29;20476;-83
2021/07/26 13:10:52;;;;;;;6.57;6.07;;;27.10;57.70;;;26.89;49.29;97571.47;4975103;28;20585;-82
2021/07/26 13:13:20;;;;;;;5.47;5.07;;;27.40;57.10;;;27.15;48.60;97551.09;4966932;28;20768;-84
2021/07/26 13:15:48;;;;;;;7.70;5.80;;;27.60;56.70;;;27.42;48.44;97565.56;4954560;28;20462;-84
2021/07/26 13:18:20;;;;;;;7.03;6.40;;;28.00;56.50;;;27.63;47.90;97553.69;4972313;28;20499;-83
2021/07/26 13:20:49;;;;;;;6.00;5.50;;;28.10;56.40;;;27.35;48.40;97535.59;4955904;28;20438;-83
2021/07/26 13:23:16;;;;;;;6.07;5.57;;;28.10;56.50;;;27.93;47.62;97551.59;4974308;28;20552;-82
2021/07/26 13:25:43;;;;;;;6.80;5.57;;;28.30;56.40;;;28.05;47.52;97547.22;4971652;28;20466;-85
2021/07/26 13:28:10;;;;;;;6.17;5.70;;;28.60;56.40;;;28.21;46.59;97541.88;4976416;28;20482;-85
2021/07/26 13:30:38;;;;;;;6.13;5.63;;;28.50;55.80;;;28.10;46.27;97550.59;4974125;28;20467;-84
2021/07/26 13:33:05;;;;;;;6.03;5.53;;;28.30;56.00;;;27.76;47.53;97541.47;4974047;28;20474;-82
2021/07/26 13:35:36;;;;;;;5.30;4.90;;;28.20;56.50;;;27.40;48.65;97540.13;4974462;28;20454;-84
2021/07/26 13:38:04;;;;;;;6.77;6.17;;;27.90;56.60;;;27.51;49.37;97548.84;4973074;28;20482;-84
2021/07/26 13:40:32;;;;;;;6.47;5.67;;;28.00;56.90;;;27.44;47.69;97536.34;4971500;28;20523;-83
2021/07/26 13:42:59;;;;;;;7.30;5.67;;;28.10;56.10;;;27.63;48.30;97525.94;4969574;28;20488;-83
2021/07/26 13:45:26;;;;;;;5.67;5.13;;;28.20;56.20;;;27.36;49.51;97528.88;4966537;28;20499;-88
2021/07/26 13:47:55;;;;;;;6.03;5.17;;;28.10;56.50;;;27.15;49.15;97534.47;4970665;28;20454;-86
2021/07/26 13:50:22;;;;;;;5.60;5.20;;;28.00;56.30;;;27.27;48.54;97536.47;4972699;28;20505;-86
2021/07/26 13:52:50;;;;;;;6.50;5.60;;;27.90;56.10;;;27.12;48.61;97530.38;4968019;28;20493;-88
2021/07/26 13:55:17;;;;;;;5.63;5.13;;;27.80;56.00;;;26.87;48.97;97541.31;4948892;29;20466;-87
2021/07/26 13:57:44;;;;;;;6.30;5.80;;;27.60;56.10;;;26.81;49.79;97517.69;4969052;28;20473;-88
2021/07/26 14:00:17;;;;;;;5.70;5.20;;;27.40;56.80;;;26.74;49.17;97531.25;4977508;28;20435;-88
2021/07/26 14:02:44;;;;;;;7.27;5.60;;;27.40;56.30;;;26.73;49.24;97524.06;4956368;29;20450;-87
2021/07/26 14:05:12;;;;;;;5.13;4.57;;;27.30;56.60;;;26.61;45.68;97526.75;4972910;28;20457;-87
2021/07/26 14:07:40;;;;;;;7.53;4.40;;;27.30;54.30;;;26.80;45.33;97538.22;4974816;28;20454;-90
2021/07/26 14:10:10;;;;;;;4.80;4.40;;;27.60;53.70;;;26.58;44.58;97531.81;4968552;28;20463;-87
2021/07/26 14:12:37;;;;;;;4.93;4.23;;;27.40;52.90;;;26.60;44.91;97525.94;4976004;28;20494;-85
2021/07/26 14:15:06;;;;;;;5.97;4.87;;;27.30;53.30;;;26.79;45.55;97519.97;4974548;28;20469;-85
2021/07/26 14:17:33;;;;;;;4.77;4.47;;;27.50;53.70;;;26.93;45.83;97508.66;4978061;28;20450;-87
2021/07/26 14:20:00;;;;;;;5.33;4.83;;;27.60;53.80;;;27.03;44.18;97517.75;4972942;28;20469;-88
2021/07/26 14:22:27;;;;;;;5.20;4.27;;;27.70;53.10;;;26.98;43.92;97507.66;4955343;29;20467;-86
2021/07/26 14:24:54;;;;;;;4.43;4.03;;;27.60;52.60;;;26.44;44.45;97503.53;4971292;28;20469;-89
2021/07/26 14:27:22;;;;;;;5.33;4.90;;;27.50;52.40;;;26.46;45.07;97504.00;4966907;28;20689;-87
2021/07/26 14:29:49;;;;;;;4.70;4.30;;;27.20;53.00;;;26.90;46.16;97516.84;4975162;28;20462;-87
2021/07/26 14:32:16;;;;;;;5.67;5.13;;;27.40;54.30;;;27.07;44.71;97499.28;4970769;28;20454;-88
2021/07/26 14:34:47;;;;;;;5.60;5.10;;;27.60;53.50;;;27.21;43.81;97507.31;4974658;28;20493;-86
2021/07/26 14:37:14;;;;;;;6.73;5.40;;;27.60;53.20;;;27.55;44.07;97505.44;4974699;28;20513;-87
2021/07/26 14:39:41;;;;;;;5.47;5.00;;;27.70;53.40;;;27.17;45.83;97507.22;4975116;28;20625;-88
2021/07/26 14:42:08;;;;;;;5.53;5.03;;;27.80;54.10;;;27.36;45.68;97515.03;4968894;28;20528;-86
2021/07/26 14:44:36;;;;;;;4.80;4.40;;;28.00;53.80;;;27.76;43.58;97507.38;4972771;28;20776;-88
2021/07/26 14:47:05;;;;;;;4.90;4.50;;;28.30;53.10;;;28.00;42.38;97501.06;4974249;28;20474;-86
2021/07/26 14:49:32;;;;;;;5.23;4.83;;;28.20;52.40;;;27.27;43.50;97503.22;4980960;28;20473;-87
2021/07/26 14:52:00;;;;;;;5.40;5.00;;;28.10;52.40;;;27.43;43.28;97500.63;4957346;29;20439;-89
2021/07/26 14:54:28;;;;;;;4.93;4.63;;;28.10;52.30;;;27.82;43.46;97517.09;4973002;28;20486;-86
2021/07/26 14:56:57;;;;;;;6.07;4.90;;;28.30;52.70;;;28.04;43.20;97521.41;4968742;28;20462;-87
2021/07/26 14:59:24;;;;;;;5.00;4.60;;;28.60;53.00;;;27.97;43.20;97516.44;4971505;28;20775;-87
2021/07/26 15:01:53;;;;;;;5.40;4.90;;;28.50;52.50;;;27.59;43.32;97484.19;4970942;28;20454;-90
2021/07/26 15:04:21;;;;;;;5.73;5.23;;;28.20;52.50;;;27.81;43.49;97513.50;4970355;28;20521;-87
2021/07/26 15:06:48;;;;;;;5.10;4.80;;;28.20;52.90;;;27.28;45.41;97525.03;4952558;29;20450;-87
2021/07/26 15:09:19;;;;;;;5.90;5.50;;;27.90;53.20;;;27.14;44.26;97528.09;4969610;28;20470;-85
2021/07/26 15:11:48;;;;;;;4.50;4.13;;;27.80;52.80;;;27.04;44.25;97522.94;4972894;28;20450;-87
2021/07/26 15:14:15;;;;;;;5.00;4.60;;;27.80;52.50;;;26.91;44.53;97526.75;4971728;28;20497;-86
2021/07/26 15:16:42;;;;;;;4.50;4.10;;;27.70;52.70;;;26.63;45.04;97521.72;4971348;28;20489;-84
2021/07/26 15:19:10;;;;;;;7.13;4.70;;;27.40;52.40;;;26.21;45.47;97517.66;4969961;28;20466;-83
2021/07/26 15:21:37;;;;;;;5.30;4.80;;;27.00;52.90;;;26.47;45.86;97511.19;4970488;28;20542;-84
2021/07/26 15:24:06;;;;;;;5.40;5.00;;;27.10;53.20;;;26.33;45.39;97516.16;4967841;28;20632;-85
2021/07/26 15:26:35;;;;;;;8.53;4.50;;;27.10;52.90;;;26.20;46.40;97502.19;4969995;28;20446;-90
2021/07/26 15:29:02;;;;;;;5.53;4.50;;;27.10;53.30;;;26.82;45.90;97522.06;4969164;28;20785;-88
2021/07/26 15:31:29;;;;;;;8.57;4.83;;;27.20;53.50;;;26.89;47.18;97515.22;4966747;28;20446;-79
2021/07/26 15:33:56;;;;;;;6.20;4.60;;;27.40;54.20;;;26.94;47.52;97517.81;4967653;28;20456;-78
2021/07/26 15:36:24;;;;;;;5.53;5.03;;;27.50;54.60;;;26.03;47.31;97514.09;4965156;28;20454;-77
2021/07/26 15:38:51;;;;;;;5.33;4.83;;;26.90;53.60;;;26.33;48.38;97516.94;4969454;28;20517;-78
2021/07/26 15:41:18;;;;;;;5.90;5.27;;;27.00;54.90;;;26.41;48.23;97513.34;4970281;28;21072;-78
2021/07/26 15:43:45;;;;;;;5.50;4.43;;;27.00;54.70;;;26.27;48.49;97507.22;4970727;28;20478;-78
2021/07/26 15:46:12;;;;;;;5.30;4.90;;;27.00;54.40;;;26.15;49.30;97510.63;4968640;28;20467;-78
2021/07/26 15:48:39;;;;;;;5.77;5.37;;;26.90;55.10;;;26.09;48.23;97500.88;4969480;28;20458;-77
2021/07/26 15:51:07;;;;;;;5.60;5.20;;;26.70;54.60;;;26.30;49.02;97485.19;4969570;28;20469;-79
2021/07/26 15:53:35;;;;;;;5.33;4.83;;;26.90;55.10;;;26.57;47.71;97477.56;4966523;28;20462;-78
2021/07/26 15:56:02;;;;;;;5.23;4.83;;;27.00;54.80;;;26.18;47.55;97487.88;4966280;28;20525;-77
2021/07/26 15:58:29;;;;;;;5.10;4.70;;;26.80;54.10;;;26.32;48.66;97486.84;4966883;28;20470;-77
2021/07/26 16:00:56;;;;;;;5.13;4.73;;;26.80;54.80;;;26.38;47.02;97489.06;4967602;28;20534;-78
2021/07/26 16:03:23;;;;;;;4.93;4.57;;;26.90;54.30;;;26.54;48.37;97503.16;4974381;28;21135;-78
2021/07/26 16:05:50;;;;;;;4.80;4.40;;;27.10;54.80;;;26.80;48.21;97499.44;4971595;28;20495;-78